createdAt,value
2022-09-04T00:04:58.431Z,16.42
2022-09-04T00:10:03.611Z,18.27
2022-09-04T00:15:28.888Z,17.90
2022-09-04T00:20:51.449Z,18.60
2022-09-04T00:25:48.119Z,19.50
2022-09-04T00:30:51.136Z,20.10
2022-09-04T00:35:56.723Z,21.02
2022-09-04T00:41:05.249Z,17.90
2022-09-04T00:46:16.897Z,18.10
2022-09-04T00:51:48.948Z,18.83
2022-09-04T00:57:14.644Z,24.08
2022-09-04T01:02:18.174Z,95.18
2022-09-04T01:07:46.554Z,26.63
2022-09-04T01:12:52.263Z,19.77
2022-09-04T01:17:48.670Z,18.75
2022-09-04T01:23:03.220Z,20.45
2022-09-04T01:28:05.632Z,16.55
2022-09-04T01:33:15.860Z,17.67
2022-09-04T01:38:23.851Z,18.75
2022-09-04T01:43:37.942Z,20.15
2022-09-04T01:48:42.230Z,19.63
2022-09-04T01:53:38.742Z,18.38
2022-09-04T01:58:55.164Z,17.30
2022-09-04T02:04:24.851Z,17.63
2022-09-04T02:09:48.716Z,16.90
2022-09-04T02:15:13.505Z,16.70
2022-09-04T02:20:06.899Z,15.63
2022-09-04T02:25:14.451Z,18.45
2022-09-04T02:30:12.952Z,16.25
2022-09-04T02:35:50.547Z,14.90
2022-09-04T02:40:52.931Z,16.92
2022-09-04T02:46:00.214Z,18.40
2022-09-04T02:51:02.773Z,20.00
2022-09-04T02:56:23.097Z,18.80
2022-09-04T03:01:50.021Z,17.25
2022-09-04T03:07:19.128Z,15.30
2022-09-04T03:12:50.946Z,16.45
2022-09-04T03:17:59.604Z,15.82
2022-09-04T03:23:04.865Z,17.10
2022-09-04T03:28:14.226Z,26.85
2022-09-04T03:33:17.123Z,18.67
2022-09-04T03:38:46.073Z,16.98
2022-09-04T03:44:13.082Z,17.02
2022-09-04T03:49:08.707Z,15.73
2022-09-04T03:54:25.014Z,14.10
2022-09-04T03:59:33.393Z,15.20
2022-09-04T04:04:38.602Z,16.25
2022-09-04T04:10:01.236Z,18.13
2022-09-04T04:15:24.566Z,16.00
2022-09-04T04:20:38.868Z,15.75
2022-09-04T04:26:06.344Z,16.85
2022-09-04T04:31:28.414Z,16.05
2022-09-04T04:36:30.203Z,20.60
2022-09-04T04:42:06.402Z,14.15
2022-09-04T04:47:36.148Z,15.13
2022-09-04T04:52:50.709Z,16.10
2022-09-04T04:58:02.066Z,19.60
2022-09-04T05:03:23.541Z,15.75
2022-09-04T05:08:46.586Z,16.90
2022-09-04T05:14:19.027Z,21.13
2022-09-04T05:19:32.963Z,16.83
2022-09-04T05:24:31.933Z,16.52
2022-09-04T05:29:51.709Z,14.85
2022-09-04T05:40:13.685Z,17.27
2022-09-04T05:45:18.878Z,24.88
2022-09-04T05:50:36.844Z,17.35
2022-09-04T05:55:55.074Z,19.40
2022-09-04T06:01:00.984Z,21.23
2022-09-04T06:06:09.491Z,19.40
2022-09-04T06:11:27.351Z,17.80
2022-09-04T06:16:41.818Z,20.98
2022-09-04T06:22:12.212Z,16.80
2022-09-04T06:27:18.522Z,20.95
2022-09-04T06:32:41.181Z,18.85
2022-09-04T06:37:37.496Z,16.30
2022-09-04T06:42:50.073Z,15.43
2022-09-04T06:48:04.056Z,15.23
2022-09-04T06:53:22.964Z,16.60
2022-09-04T06:58:27.858Z,18.42
2022-09-04T07:03:21.781Z,17.02
2022-09-04T07:08:48.751Z,15.43
2022-09-04T07:13:56.691Z,17.38
2022-09-04T07:18:54.036Z,15.57
2022-09-04T07:24:40.406Z,17.63
2022-09-04T07:29:37.594Z,11.60
2022-09-04T07:34:45.594Z,11.02
2022-09-04T07:40:12.345Z,9.03
2022-09-04T07:45:23.963Z,8.55
2022-09-04T07:50:24.085Z,7.13
2022-09-04T07:55:41.427Z,6.70
2022-09-04T08:00:44.274Z,8.32
2022-09-04T08:05:52.822Z,6.05
2022-09-04T08:10:54.963Z,7.35
2022-09-04T08:15:59.247Z,10.80
2022-09-04T08:21:23.348Z,6.25
2022-09-04T08:26:43.007Z,6.13
2022-09-04T08:32:08.696Z,6.80
2022-09-04T08:37:20.962Z,10.25
2022-09-04T08:42:38.701Z,6.13
2022-09-04T08:47:47.117Z,5.60
2022-09-04T08:53:03.230Z,9.05
2022-09-04T08:58:20.224Z,6.87
2022-09-04T09:03:41.369Z,7.97
2022-09-04T09:09:04.631Z,9.60
2022-09-04T09:14:16.019Z,7.22
2022-09-04T09:19:16.510Z,5.93
2022-09-04T09:24:46.541Z,7.22
2022-09-04T09:29:58.423Z,5.00
2022-09-04T09:35:09.274Z,8.63
2022-09-04T09:40:23.956Z,6.75
2022-09-04T09:45:45.548Z,5.78
2022-09-04T09:51:09.371Z,5.63
2022-09-04T09:56:29.835Z,11.98
2022-09-04T10:01:25.815Z,6.03
2022-09-04T10:06:19.221Z,6.18
2022-09-04T10:11:56.350Z,8.02
2022-09-04T10:17:10.762Z,5.10
2022-09-04T10:22:09.862Z,5.75
2022-09-04T10:27:21.516Z,6.47
2022-09-04T10:32:23.960Z,5.10
2022-09-04T10:37:41.755Z,2.17
2022-09-04T10:42:35.283Z,4.47
2022-09-04T10:47:34.773Z,3.25
2022-09-04T10:52:43.447Z,6.07
2022-09-04T10:58:11.859Z,5.80
2022-09-04T11:03:38.312Z,7.82
2022-09-04T11:08:37.718Z,3.90
2022-09-04T11:13:57.244Z,3.47
2022-09-04T11:19:34.885Z,5.28
2022-09-04T11:24:53.846Z,6.28
2022-09-04T11:30:04.918Z,11.25
2022-09-04T11:35:00.369Z,3.47
2022-09-04T11:45:01.907Z,4.72
2022-09-04T11:50:16.517Z,4.18
2022-09-04T11:55:49.408Z,3.38
2022-09-04T12:00:59.008Z,4.15
2022-09-04T12:05:52.088Z,3.90
2022-09-04T12:11:10.003Z,2.90
2022-09-04T12:16:20.972Z,3.22
2022-09-04T12:21:53.330Z,3.47
2022-09-04T12:27:02.359Z,3.38
2022-09-04T12:32:32.377Z,2.67
2022-09-04T12:37:44.444Z,3.28
2022-09-04T12:43:27.284Z,6.97
2022-09-04T12:48:55.550Z,2.97
2022-09-04T12:53:58.170Z,3.03
2022-09-04T12:59:19.224Z,2.28
2022-09-04T13:04:22.610Z,2.97
2022-09-04T13:09:53.864Z,3.75
2022-09-04T13:15:09.242Z,3.42
2022-09-04T13:20:26.604Z,2.10
2022-09-04T13:25:31.612Z,4.30
2022-09-04T13:30:26.420Z,3.63
2022-09-04T13:35:42.009Z,4.90
2022-09-04T13:41:13.683Z,2.00
2022-09-04T13:46:15.552Z,2.13
2022-09-04T13:51:33.576Z,2.05
2022-09-04T13:57:00.143Z,3.05
2022-09-04T14:01:57.048Z,3.13
2022-09-04T14:06:50.508Z,4.70
2022-09-04T14:12:09.720Z,2.25
2022-09-04T14:17:06.344Z,2.33
2022-09-04T14:27:25.767Z,4.40
2022-09-04T14:32:29.172Z,1.95
2022-09-04T14:37:49.017Z,2.58
2022-09-04T14:42:50.267Z,5.35
2022-09-04T14:47:58.388Z,4.18
2022-09-04T14:52:55.583Z,4.57
2022-09-04T14:57:58.015Z,2.70
2022-09-04T15:03:12.991Z,8.07
2022-09-04T15:08:09.308Z,3.38
2022-09-04T15:13:27.256Z,2.80
2022-09-04T15:18:27.190Z,2.08
2022-09-04T15:24:04.793Z,2.13
2022-09-04T15:29:08.218Z,3.43
2022-09-04T15:34:08.304Z,3.97
2022-09-04T15:39:05.498Z,5.05
2022-09-04T15:44:18.967Z,3.22
2022-09-04T15:49:25.440Z,4.97
2022-09-04T15:54:29.846Z,3.03
2022-09-04T15:59:46.169Z,5.13
2022-09-04T16:05:04.219Z,2.72
2022-09-04T16:10:10.318Z,3.13
2022-09-04T16:15:12.376Z,8.50
2022-09-04T16:21:02.341Z,4.03
2022-09-04T16:26:00.155Z,3.28
2022-09-04T16:31:08.712Z,2.47
2022-09-04T16:36:02.098Z,3.22
2022-09-04T16:41:26.455Z,2.40
2022-09-04T16:46:31.212Z,3.63
2022-09-04T16:51:41.224Z,4.88
2022-09-04T16:56:43.736Z,4.45
2022-09-04T17:02:14.542Z,4.22
2022-09-04T17:07:10.690Z,5.93
2022-09-04T17:12:19.252Z,3.17
2022-09-04T17:17:30.970Z,4.53
2022-09-04T17:25:47.187Z,3.40
2022-09-04T17:29:08.630Z,11.73
2022-09-04T17:39:47.725Z,3.22
2022-09-04T17:40:55.856Z,8.32
2022-09-04T17:44:46.640Z,4.35
2022-09-04T17:49:44.979Z,3.50
2022-09-04T17:54:41.175Z,4.70
2022-09-04T17:59:45.917Z,5.38
2022-09-04T18:05:16.504Z,6.65
2022-09-04T18:10:54.223Z,6.15
2022-09-04T18:16:01.426Z,8.50
2022-09-04T18:21:08.090Z,7.90
2022-09-04T18:26:48.515Z,4.13
2022-09-04T18:37:12.508Z,10.55
2022-09-04T18:37:43.940Z,6.75
2022-09-04T18:50:24.771Z,4.05
2022-09-04T18:50:33.209Z,4.40
2022-09-04T18:53:54.744Z,5.43
2022-09-04T18:58:57.014Z,4.30
2022-09-04T19:03:56.819Z,8.80
2022-09-04T19:08:52.435Z,8.73
2022-09-04T19:13:52.672Z,3.47
2022-09-04T19:19:07.068Z,14.38
2022-09-04T19:24:34.572Z,13.13
2022-09-04T19:29:45.244Z,6.15
2022-09-04T19:34:43.069Z,7.18
2022-09-04T19:45:53.746Z,7.60
2022-09-04T19:46:01.098Z,4.88
2022-09-04T19:53:19.590Z,10.55
2022-09-04T19:56:15.828Z,5.50
2022-09-04T20:01:18.553Z,4.78
2022-09-04T20:06:21.679Z,5.00
2022-09-04T20:11:34.450Z,12.55
2022-09-04T20:16:48.223Z,5.35
2022-09-04T20:21:43.927Z,7.38
2022-09-04T20:26:53.546Z,6.20
2022-09-04T20:32:11.228Z,11.02
2022-09-04T20:37:34.361Z,7.95
2022-09-04T20:42:56.619Z,8.18
2022-09-04T20:52:40.683Z,4.40
2022-09-04T20:53:31.501Z,6.25
2022-09-04T21:03:07.908Z,9.05
2022-09-04T21:04:42.097Z,7.32
2022-09-04T21:09:58.712Z,7.13
2022-09-04T21:15:02.650Z,5.28
2022-09-04T21:20:05.272Z,7.47
2022-09-04T21:25:18.520Z,6.78
2022-09-04T21:30:38.745Z,6.88
2022-09-04T21:35:38.841Z,7.38
2022-09-04T21:41:14.218Z,9.85
2022-09-04T21:46:24.613Z,4.43
2022-09-04T21:51:37.650Z,15.07
2022-09-04T22:02:25.242Z,10.52
2022-09-04T22:02:44.249Z,4.88
2022-09-04T22:13:28.255Z,5.38
2022-09-04T22:13:49.233Z,7.63
2022-09-04T22:19:16.651Z,7.15
2022-09-04T22:24:32.886Z,5.10
2022-09-04T22:30:06.444Z,6.03
2022-09-04T22:34:59.160Z,6.80
2022-09-04T22:39:55.526Z,5.32
2022-09-04T22:45:20.439Z,6.18
2022-09-04T22:50:34.317Z,4.97
2022-09-04T22:56:24.065Z,5.30
2022-09-04T23:01:21.032Z,5.90
2022-09-04T23:10:35.432Z,5.90
2022-09-04T23:13:54.155Z,6.88
2022-09-04T23:18:44.326Z,9.75
2022-09-04T23:26:50.177Z,4.85
2022-09-04T23:34:30.668Z,4.97
2022-09-04T23:40:05.287Z,4.50
2022-09-04T23:46:03.063Z,5.72
2022-09-04T23:51:01.004Z,6.40
2022-09-04T23:56:06.007Z,5.80
